Wolf Point, MT

1:51 PM MDT on August 23, 2014 (GMT -0600)
Clayton | Change Station
CLOSE
Current Station
Airport
Location: Wolf Point,
Elevation: 1985 ft
Nearby Weather Stations

Elev 1985 ft 48.09 °N, 105.58 °W | Updated 11 minutes ago

Light Rain
Light Rain
56 °F
Feels Like 56 °F
N
21
Wind Variable Wind from ENE

Today
High -- | Low -- °F
--% Chance of Precip.
Yesterday
High -- | Low -- °F
Precip. -- in
6:07 AM 8:00 PM
Waning Crescent, 3% visible
Pressure 29.98 in
Visibility 10.0 miles
Clouds Mostly Cloudy 1300 ft
Overcast 2900 ft
Dew Point 53 °F
Humidity 90%
Rainfall 1.32 in
Snow Depth Not available.
UV 3 out of 12
Pollen .90 out of 12
Air Quality Not available.
Flu Activity Not available.
SPECI KOLF 231940Z AUTO 06018KT 10SM -RA BKN013 OVC029 13/12 A2998 RMK AO2 PK WND 06030/1924 P0002 T01330117

More Conditions Fewer Conditions

Pressure 29.98 in
Visibility 10.0 miles
Clouds Mostly Cloudy 1300 ft
Overcast 2900 ft
Dew Point 53 °F
Humidity 90%
Rainfall 1.32 in
Snow Depth Not available.
UV 3 out of 12
Pollen .90 out of 12
Air Quality Not available.
Flu Activity Not available.
SPECI KOLF 231940Z AUTO 06018KT 10SM -RA BKN013 OVC029 13/12 A2998 RMK AO2 PK WND 06030/1924 P0002 T01330117

More Conditions Fewer Conditions

10-Day Weather Forecast

Almanac

Astronomy

Aug. 23, 2014 Rise Set
Actual Time 6:07 AM MDT 8:00 PM MDT
Civil Twilight 5:34 AM MDT 8:33 PM MDT
Nautical Twilight 4:53 AM MDT 9:14 PM MDT
Astronomical Twilight 4:08 AM MDT 9:59 PM MDT
Moon 4:23 AM MDT 6:47 PM MDT
Length of Visible Light 14h 59m
Length of Day
13h 52m
Tomorrow will be 3m 16s shorter.
Waning Crescent, 3% of the Moon is Illuminated
Today
Waning Crescent
Aug 25
New
Sep 2
First Quarter
Sep 8
Full
Sep 15
Last Quarter

Today's Extremes

State Highs State Lows

Community

WunderPhotos

Upload Photos

1,746,583 photos uploaded!

WunderBlogs® & News

Nearby

Snow Depth

Station Depth Elevation
Rocky Boy 0 in 4700 ft
Crystal Lake 1 in 6050 ft
Daisy Peak 0 in 7600 ft
Spur Park 0 in 8100 ft
Deadman Creek 0 in 6450 ft

Earthquake Activity

City Distance Mag. Time & Date
No recent earthquake activity has been reported nearby.
Minimum magnitude displayed is 2.5.

Coastal Water Temperatures

Place Temperature
No Stations Reporting

Nearby Weather Stations